MSR778 HECA-HECP
Flight info
| Callsign | MSR778 |
|---|---|
| Flight time | 0h 14m |
| Altitude | 8000 |
| Route | CVO DCT IVAXA/N0277F070 DCT 2959N03148E |
| Aircraft | B77L/H-SDE1E2E3FGHIJ2J3J4J5M1RWXY/LB1D1 |
Departure
| Time | 2026-05-01 14:30 |
|---|---|
| Airport | Cairo International Airport (HECA) |
Arrival
| Time | 2026-05-01 14:44 |
|---|---|
| Airport | Capital International Airport (HECP) |
| Time | Latitude | Longitude | Altitude | Speed | Heading |
|---|---|---|---|---|---|
| 2026-05-01 14:08 | 30.11051 | 31.40311 | 379 ft | 0 kts | 15° |
| 2026-05-01 14:20 | 30.11043 | 31.40308 | 379 ft | 2 kts | 16° |
| 2026-05-01 14:21 | 30.11028 | 31.40303 | 379 ft | 2 kts | 18° |
| 2026-05-01 14:21 | 30.11012 | 31.40296 | 379 ft | 2 kts | 21° |
| 2026-05-01 14:21 | 30.10997 | 31.40289 | 379 ft | 2 kts | 30° |
| 2026-05-01 14:22 | 30.10978 | 31.40269 | 379 ft | 2 kts | 72° |
| 2026-05-01 14:22 | 30.10978 | 31.40252 | 379 ft | 1 kts | 108° |
| 2026-05-01 14:22 | 30.10979 | 31.40247 | 379 ft | 0 kts | 108° |
| 2026-05-01 14:22 | 30.10977 | 31.40253 | 379 ft | 0 kts | 108° |
| 2026-05-01 14:25 | 30.10974 | 31.40265 | 379 ft | 10 kts | 107° |
| 2026-05-01 14:25 | 30.10933 | 31.40426 | 379 ft | 22 kts | 109° |
| 2026-05-01 14:25 | 30.10875 | 31.40458 | 379 ft | 6 kts | 231° |
| 2026-05-01 14:26 | 30.10842 | 31.40422 | 379 ft | 7 kts | 223° |
| 2026-05-01 14:26 | 30.10745 | 31.40299 | 379 ft | 21 kts | 229° |
| 2026-05-01 14:26 | 30.10628 | 31.40144 | 379 ft | 26 kts | 229° |
| 2026-05-01 14:27 | 30.10510 | 31.39987 | 379 ft | 26 kts | 229° |
| 2026-05-01 14:27 | 30.10404 | 31.39844 | 379 ft | 22 kts | 229° |
| 2026-05-01 14:27 | 30.10342 | 31.39765 | 379 ft | 13 kts | 228° |
| 2026-05-01 14:28 | 30.10211 | 31.39597 | 379 ft | 15 kts | 227° |
| 2026-05-01 14:28 | 30.10139 | 31.39587 | 379 ft | 7 kts | 156° |
| 2026-05-01 14:28 | 30.10092 | 31.39622 | 379 ft | 9 kts | 142° |
| 2026-05-01 14:28 | 30.10029 | 31.39688 | 379 ft | 19 kts | 135° |
| 2026-05-01 14:29 | 30.10011 | 31.39859 | 379 ft | 26 kts | 78° |
| 2026-05-01 14:29 | 30.10140 | 31.40056 | 379 ft | 52 kts | 49° |
| 2026-05-01 14:30 | 30.12847 | 31.42381 | 2456 ft | 187 kts | 358° |
| 2026-05-01 14:30 | 30.14100 | 31.41929 | 3192 ft | 198 kts | 328° |
| 2026-05-01 14:30 | 30.15338 | 31.40970 | 3457 ft | 238 kts | 325° |
| 2026-05-01 14:31 | 30.17712 | 31.38106 | 3667 ft | 257 kts | 288° |
| 2026-05-01 14:31 | 30.17739 | 31.36071 | 4705 ft | 255 kts | 260° |
| 2026-05-01 14:31 | 30.17266 | 31.34112 | 5467 ft | 258 kts | 255° |
| 2026-05-01 14:31 | 30.16729 | 31.32067 | 5928 ft | 270 kts | 255° |
| 2026-05-01 14:32 | 30.16146 | 31.30007 | 5929 ft | 271 kts | 248° |
| 2026-05-01 14:32 | 30.14997 | 31.28258 | 5943 ft | 279 kts | 220° |
| 2026-05-01 14:32 | 30.13245 | 31.27282 | 5945 ft | 284 kts | 194° |
| 2026-05-01 14:32 | 30.11260 | 31.27290 | 5940 ft | 287 kts | 171° |
| 2026-05-01 14:33 | 30.09310 | 31.27833 | 5947 ft | 290 kts | 166° |
| 2026-05-01 14:33 | 30.07392 | 31.28459 | 5945 ft | 292 kts | 165° |
| 2026-05-01 14:33 | 30.05431 | 31.29112 | 5943 ft | 293 kts | 165° |
| 2026-05-01 14:33 | 30.03480 | 31.29766 | 5936 ft | 292 kts | 165° |
| 2026-05-01 14:34 | 30.01598 | 31.30600 | 5938 ft | 288 kts | 149° |
| 2026-05-01 14:34 | 30.00119 | 31.32145 | 5945 ft | 288 kts | 129° |
| 2026-05-01 14:34 | 29.98915 | 31.33978 | 5932 ft | 283 kts | 125° |
| 2026-05-01 14:34 | 29.97769 | 31.35822 | 5719 ft | 284 kts | 125° |
| 2026-05-01 14:35 | 29.96629 | 31.37657 | 5450 ft | 279 kts | 125° |
| 2026-05-01 14:35 | 29.95507 | 31.39466 | 5197 ft | 275 kts | 124° |
| 2026-05-01 14:35 | 29.94399 | 31.41245 | 4970 ft | 270 kts | 124° |
| 2026-05-01 14:35 | 29.93309 | 31.42979 | 4741 ft | 271 kts | 125° |
| 2026-05-01 14:36 | 29.92208 | 31.44732 | 4482 ft | 268 kts | 125° |
| 2026-05-01 14:36 | 29.91114 | 31.46472 | 4244 ft | 268 kts | 125° |
| 2026-05-01 14:36 | 29.90030 | 31.48221 | 3962 ft | 268 kts | 125° |
| 2026-05-01 14:36 | 29.88952 | 31.49963 | 3749 ft | 266 kts | 124° |
| 2026-05-01 14:37 | 29.87875 | 31.51702 | 3488 ft | 267 kts | 125° |
| 2026-05-01 14:37 | 29.86792 | 31.53447 | 3304 ft | 269 kts | 124° |
| 2026-05-01 14:37 | 29.85772 | 31.55228 | 3101 ft | 262 kts | 113° |
| 2026-05-01 14:37 | 29.85391 | 31.57237 | 2920 ft | 258 kts | 85° |
| 2026-05-01 14:38 | 29.85833 | 31.59219 | 2815 ft | 256 kts | 65° |
| 2026-05-01 14:38 | 29.86529 | 31.61136 | 2711 ft | 259 kts | 64° |
| 2026-05-01 14:38 | 29.87219 | 31.63044 | 2607 ft | 257 kts | 64° |
| 2026-05-01 14:38 | 29.87928 | 31.64943 | 2532 ft | 257 kts | 64° |
| 2026-05-01 14:39 | 29.88639 | 31.66845 | 2490 ft | 258 kts | 64° |
| 2026-05-01 14:39 | 29.89349 | 31.68746 | 2497 ft | 258 kts | 65° |
| 2026-05-01 14:39 | 29.90048 | 31.70611 | 2485 ft | 256 kts | 65° |
| 2026-05-01 14:39 | 29.90754 | 31.72482 | 2489 ft | 253 kts | 65° |
| 2026-05-01 14:40 | 29.91435 | 31.74318 | 2482 ft | 243 kts | 65° |
| 2026-05-01 14:40 | 29.92063 | 31.76076 | 2462 ft | 225 kts | 65° |
| 2026-05-01 14:40 | 29.92627 | 31.77649 | 2464 ft | 205 kts | 64° |
| 2026-05-01 14:40 | 29.93147 | 31.79110 | 2524 ft | 197 kts | 64° |
| 2026-05-01 14:41 | 29.93703 | 31.80582 | 2488 ft | 197 kts | 56° |
| 2026-05-01 14:41 | 29.94671 | 31.81543 | 2475 ft | 178 kts | 15° |
| 2026-05-01 14:41 | 29.95800 | 31.81594 | 2472 ft | 149 kts | 351° |
| 2026-05-01 14:41 | 29.96810 | 31.81442 | 2445 ft | 142 kts | 351° |
| 2026-05-01 14:42 | 29.97779 | 31.81397 | 2204 ft | 139 kts | 1° |
| 2026-05-01 14:42 | 29.98719 | 31.81452 | 2260 ft | 137 kts | 1° |
| 2026-05-01 14:42 | 29.99697 | 31.81439 | 2326 ft | 146 kts | 356° |
| 2026-05-01 14:42 | 30.00751 | 31.81447 | 2095 ft | 149 kts | 0° |
| 2026-05-01 14:43 | 30.01745 | 31.81587 | 1866 ft | 140 kts | 9° |
| 2026-05-01 14:43 | 30.02696 | 31.81840 | 1660 ft | 146 kts | 12° |
| 2026-05-01 14:43 | 30.03675 | 31.82185 | 1372 ft | 141 kts | 14° |
| 2026-05-01 14:43 | 30.04628 | 31.82497 | 1114 ft | 144 kts | 10° |
| 2026-05-01 14:44 | 30.05611 | 31.82804 | 902 ft | 149 kts | 11° |
| 2026-05-01 14:44 | 30.07030 | 31.83258 | 790 ft | 57 kts | 13° |
| 2026-05-01 14:44 | 30.07351 | 31.83360 | 770 ft | 32 kts | 24° |
| 2026-05-01 14:45 | 30.07385 | 31.83456 | 769 ft | 0 kts | 102° |
| 2026-05-01 14:47 | 30.07368 | 31.83537 | 770 ft | 27 kts | 104° |
| 2026-05-01 14:47 | 30.07318 | 31.83746 | 772 ft | 26 kts | 105° |
| 2026-05-01 14:47 | 30.07290 | 31.83872 | 775 ft | 13 kts | 99° |
| 2026-05-01 14:48 | 30.07362 | 31.83946 | 771 ft | 9 kts | 12° |
| 2026-05-01 14:48 | 30.07386 | 31.84002 | 772 ft | 12 kts | 96° |
| 2026-05-01 14:48 | 30.07373 | 31.84058 | 771 ft | 0 kts | 105° |